createdAt,value
2022-11-16T00:02:09.405Z,11.85
2022-11-16T00:04:38.864Z,10.98
2022-11-16T00:07:07.395Z,11.15
2022-11-16T00:09:35.739Z,9.80
2022-11-16T00:12:05.767Z,9.45
2022-11-16T00:14:35.368Z,10.65
2022-11-16T00:17:04.538Z,14.55
2022-11-16T00:19:32.765Z,13.25
2022-11-16T00:22:02.060Z,15.25
2022-11-16T00:24:30.028Z,12.98
2022-11-16T00:26:57.912Z,15.05
2022-11-16T00:29:27.817Z,17.23
2022-11-16T00:31:56.161Z,16.83
2022-11-16T00:34:24.779Z,12.52
2022-11-16T00:36:53.016Z,16.70
2022-11-16T00:39:22.548Z,18.13
2022-11-16T00:41:50.692Z,15.68
2022-11-16T00:44:18.958Z,14.65
2022-11-16T00:46:46.880Z,14.80
2022-11-16T00:49:15.045Z,16.52
2022-11-16T00:51:43.229Z,15.27
2022-11-16T00:54:12.259Z,13.70
2022-11-16T00:56:42.122Z,15.43
2022-11-16T00:59:10.109Z,14.93
2022-11-16T01:01:38.269Z,13.18
2022-11-16T01:04:07.568Z,17.83
2022-11-16T01:06:37.252Z,17.65
2022-11-16T01:09:05.519Z,17.85
2022-11-16T01:11:50.771Z,17.38
2022-11-16T01:16:50.416Z,14.25
2022-11-16T01:19:18.754Z,12.93
2022-11-16T01:21:46.730Z,19.17
2022-11-16T01:24:14.933Z,15.82
2022-11-16T01:26:42.821Z,15.85
2022-11-16T01:29:10.776Z,13.68
2022-11-16T01:31:44.665Z,15.00
2022-11-16T01:34:12.593Z,12.10
2022-11-16T01:36:40.570Z,14.38
2022-11-16T01:39:08.719Z,13.65
2022-11-16T01:41:46.437Z,13.60
2022-11-16T01:44:58.427Z,11.82
2022-11-16T01:47:28.205Z,16.10
2022-11-16T01:50:03.898Z,16.27
2022-11-16T01:52:36.843Z,11.07
2022-11-16T01:55:05.898Z,13.00
2022-11-16T01:58:04.415Z,11.80
2022-11-16T02:00:34.025Z,16.23
2022-11-16T02:03:22.010Z,20.75
2022-11-16T02:06:11.929Z,14.30
2022-11-16T02:09:12.474Z,14.15
2022-11-16T02:12:03.770Z,13.20
2022-11-16T02:14:44.324Z,13.27
2022-11-16T02:17:25.617Z,16.13
2022-11-16T02:20:44.938Z,16.95
2022-11-16T02:23:39.117Z,13.40
2022-11-16T02:26:31.745Z,11.55
2022-11-16T02:29:17.257Z,18.48
2022-11-16T02:31:51.615Z,14.27
2022-11-16T02:34:22.250Z,13.20
2022-11-16T02:36:53.301Z,13.95
2022-11-16T02:39:27.024Z,10.95
2022-11-16T02:41:56.972Z,13.20
2022-11-16T02:44:32.597Z,18.23
2022-11-16T02:47:05.014Z,24.30
2022-11-16T02:49:36.849Z,14.10
2022-11-16T02:52:05.857Z,15.23
2022-11-16T02:54:33.880Z,12.73
2022-11-16T02:57:40.888Z,12.48
2022-11-16T03:00:19.916Z,13.25
2022-11-16T03:02:55.060Z,15.00
2022-11-16T03:05:32.039Z,15.98
2022-11-16T03:08:10.538Z,15.93
2022-11-16T03:11:02.272Z,15.95
2022-11-16T03:13:34.906Z,13.80
2022-11-16T03:16:10.907Z,19.48
2022-11-16T03:18:40.789Z,13.43
2022-11-16T03:21:16.181Z,14.35
2022-11-16T03:23:46.697Z,12.27
2022-11-16T03:26:19.722Z,11.68
2022-11-16T03:28:56.306Z,19.73
2022-11-16T03:31:30.198Z,11.77
2022-11-16T03:34:02.003Z,11.53
2022-11-16T03:36:33.194Z,13.00
2022-11-16T03:39:05.324Z,10.82
2022-11-16T03:41:36.802Z,13.13
2022-11-16T03:44:05.883Z,14.52
2022-11-16T03:46:35.403Z,17.73
2022-11-16T03:49:03.629Z,12.15
2022-11-16T03:51:36.869Z,10.93
2022-11-16T03:54:06.014Z,11.38
2022-11-16T03:56:35.482Z,12.18
2022-11-16T03:59:04.362Z,11.85
2022-11-16T04:01:32.745Z,12.65
2022-11-16T04:04:02.946Z,11.10
2022-11-16T04:06:48.386Z,12.18
2022-11-16T04:09:33.870Z,15.82
2022-11-16T04:12:19.381Z,10.50
2022-11-16T04:15:05.733Z,9.15
2022-11-16T04:17:53.531Z,12.60
2022-11-16T04:20:40.116Z,12.00
2022-11-16T04:23:29.580Z,14.88
2022-11-16T04:25:58.036Z,14.90
2022-11-16T04:28:28.723Z,11.57
2022-11-16T04:31:20.590Z,12.10
2022-11-16T04:34:28.186Z,15.30
2022-11-16T04:37:18.041Z,12.90
2022-11-16T04:39:46.304Z,10.32
2022-11-16T04:42:16.192Z,13.65
2022-11-16T04:45:04.662Z,13.15
2022-11-16T04:47:49.037Z,11.20
2022-11-16T04:50:17.741Z,10.45
2022-11-16T04:52:47.063Z,15.40
2022-11-16T04:55:16.501Z,15.02
2022-11-16T04:57:46.607Z,11.75
2022-11-16T05:00:16.216Z,14.45
2022-11-16T05:02:45.112Z,14.90
2022-11-16T05:05:13.693Z,20.42
2022-11-16T05:07:44.431Z,12.65
2022-11-16T05:10:20.838Z,12.23
2022-11-16T05:12:50.771Z,10.35
2022-11-16T05:15:19.810Z,14.65
2022-11-16T05:17:49.006Z,12.68
2022-11-16T05:20:38.484Z,11.98
2022-11-16T05:23:28.555Z,10.98
2022-11-16T05:26:00.204Z,18.10
2022-11-16T05:28:28.976Z,13.40
2022-11-16T05:30:57.011Z,17.77
2022-11-16T05:33:27.186Z,13.82
2022-11-16T05:35:55.256Z,13.68
2022-11-16T05:38:23.941Z,13.50
2022-11-16T05:40:56.236Z,14.32
2022-11-16T05:43:25.541Z,16.23
2022-11-16T05:46:01.884Z,14.00
2022-11-16T05:48:29.861Z,14.35
2022-11-16T05:50:59.612Z,20.73
2022-11-16T05:53:29.667Z,18.95
2022-11-16T05:55:59.358Z,17.65
2022-11-16T05:58:28.993Z,11.30
2022-11-16T06:00:59.512Z,12.15
2022-11-16T06:03:29.382Z,17.30
2022-11-16T06:05:58.187Z,13.05
2022-11-16T06:08:28.345Z,11.88
2022-11-16T06:11:01.723Z,12.45
2022-11-16T06:13:36.328Z,20.05
2022-11-16T06:16:15.735Z,17.90
2022-11-16T06:18:46.277Z,19.13
2022-11-16T06:21:22.486Z,12.82
2022-11-16T06:23:50.501Z,16.50
2022-11-16T06:26:18.968Z,13.68
2022-11-16T06:28:49.372Z,24.65
2022-11-16T06:31:18.422Z,18.25
2022-11-16T06:33:47.261Z,18.88
2022-11-16T06:36:22.971Z,14.75
2022-11-16T06:38:51.826Z,14.15
2022-11-16T06:41:21.459Z,12.82
2022-11-16T06:43:52.568Z,18.30
2022-11-16T06:46:24.558Z,12.52
2022-11-16T06:48:53.336Z,19.92
2022-11-16T06:51:21.283Z,11.57
2022-11-16T06:53:49.332Z,14.57
2022-11-16T06:56:17.570Z,18.45
2022-11-16T06:58:53.742Z,16.20
2022-11-16T07:01:24.103Z,12.10
2022-11-16T07:03:57.850Z,16.38
2022-11-16T07:06:25.844Z,18.95
2022-11-16T07:08:53.835Z,14.15
2022-11-16T07:11:26.004Z,12.85
2022-11-16T07:13:55.575Z,14.13
2022-11-16T07:16:23.877Z,20.45
2022-11-16T07:18:58.980Z,19.15
2022-11-16T07:21:29.983Z,17.60
2022-11-16T07:24:00.039Z,19.30
2022-11-16T07:26:28.866Z,23.90
2022-11-16T07:29:03.689Z,28.45
2022-11-16T07:31:33.657Z,26.60
2022-11-16T07:34:24.900Z,58.78
2022-11-16T07:37:03.947Z,41.40
2022-11-16T07:39:31.915Z,24.25
2022-11-16T07:42:00.114Z,25.98
2022-11-16T07:44:45.737Z,30.17
2022-11-16T07:47:14.891Z,26.15
2022-11-16T07:49:42.998Z,24.27
2022-11-16T07:52:22.289Z,18.63
2022-11-16T07:54:58.640Z,19.30
2022-11-16T07:57:28.916Z,12.55
2022-11-16T08:00:01.827Z,16.27
2022-11-16T08:02:41.423Z,14.45
2022-11-16T08:05:13.588Z,13.18
2022-11-16T08:07:41.936Z,19.85
2022-11-16T08:10:10.796Z,10.75
2022-11-16T08:12:38.939Z,11.10
2022-11-16T08:15:10.172Z,13.77
2022-11-16T08:17:39.160Z,16.23
2022-11-16T08:20:10.519Z,14.98
2022-11-16T08:22:38.682Z,15.30
2022-11-16T08:25:08.609Z,19.77
2022-11-16T08:27:36.779Z,21.92
2022-11-16T08:30:09.756Z,26.90
2022-11-16T08:32:42.154Z,22.03
2022-11-16T08:35:11.621Z,27.48
2022-11-16T08:37:39.829Z,26.98
2022-11-16T08:40:09.743Z,19.63
2022-11-16T08:42:43.611Z,19.60
2022-11-16T08:45:12.946Z,16.60
2022-11-16T08:47:43.568Z,20.20
2022-11-16T08:50:12.035Z,20.98
2022-11-16T08:52:40.406Z,16.98
2022-11-16T08:55:10.269Z,17.00
2022-11-16T08:57:39.004Z,18.98
2022-11-16T09:00:12.253Z,19.27
2022-11-16T09:02:40.332Z,16.63
2022-11-16T09:05:12.040Z,24.98
2022-11-16T09:07:40.722Z,15.88
2022-11-16T09:10:09.652Z,18.00
2022-11-16T09:12:38.527Z,25.73
2022-11-16T09:15:07.997Z,17.63
2022-11-16T09:17:35.975Z,15.85
2022-11-16T09:20:04.822Z,17.67
2022-11-16T09:22:34.268Z,20.02
2022-11-16T09:25:02.309Z,15.52
2022-11-16T09:27:30.200Z,21.58
2022-11-16T09:29:58.203Z,17.63
2022-11-16T09:32:27.182Z,20.00
2022-11-16T09:34:55.188Z,17.70
2022-11-16T09:37:23.295Z,19.45
2022-11-16T09:39:52.542Z,18.45
2022-11-16T09:42:35.833Z,15.63
2022-11-16T09:45:06.361Z,17.02
2022-11-16T09:47:50.010Z,20.35
2022-11-16T09:50:28.856Z,18.48
2022-11-16T09:53:01.015Z,18.88
2022-11-16T09:55:36.855Z,19.33
2022-11-16T09:58:13.792Z,16.02
2022-11-16T10:00:44.934Z,20.30
2022-11-16T10:03:15.776Z,21.95
2022-11-16T10:05:48.957Z,19.33
2022-11-16T10:08:23.756Z,19.10
2022-11-16T10:11:07.766Z,21.98
2022-11-16T10:13:47.037Z,21.63
2022-11-16T10:16:22.872Z,26.05
2022-11-16T10:18:58.283Z,20.50
2022-11-16T10:21:42.602Z,21.08
2022-11-16T10:24:33.433Z,21.67
2022-11-16T10:27:22.180Z,23.90
2022-11-16T10:30:00.487Z,20.15
2022-11-16T10:32:31.023Z,31.10
2022-11-16T10:35:05.237Z,27.38
2022-11-16T10:37:36.816Z,21.73
2022-11-16T10:40:20.159Z,20.05
2022-11-16T10:42:58.490Z,25.40
2022-11-16T10:45:34.096Z,21.98
2022-11-16T10:48:12.408Z,23.77
2022-11-16T10:50:44.862Z,22.33
2022-11-16T10:53:15.125Z,22.73
2022-11-16T10:55:43.212Z,21.60
2022-11-16T10:58:12.451Z,23.70
2022-11-16T11:00:45.463Z,24.80
2022-11-16T11:03:13.547Z,22.15
2022-11-16T11:05:53.324Z,22.13
2022-11-16T11:08:31.404Z,25.30
2022-11-16T11:11:22.501Z,22.48
2022-11-16T11:14:06.232Z,28.27
2022-11-16T11:16:34.111Z,20.77
2022-11-16T11:19:20.767Z,22.35
2022-11-16T11:21:49.803Z,24.08
2022-11-16T11:24:43.438Z,23.35
2022-11-16T11:27:06.850Z,20.42
2022-11-16T11:29:38.575Z,24.02
2022-11-16T11:32:08.955Z,17.75
2022-11-16T11:34:44.535Z,21.30
2022-11-16T11:37:17.227Z,23.80
2022-11-16T11:39:45.736Z,20.10
2022-11-16T11:42:24.712Z,20.05
2022-11-16T11:45:00.157Z,18.38
2022-11-16T11:48:02.731Z,22.23
2022-11-16T11:50:45.275Z,24.85
2022-11-16T11:53:21.815Z,22.25
2022-11-16T11:55:56.079Z,21.20
2022-11-16T11:58:30.660Z,21.45
2022-11-16T12:01:18.402Z,26.13
2022-11-16T12:04:29.342Z,22.83
2022-11-16T12:07:03.235Z,20.17
2022-11-16T12:09:38.255Z,21.70
2022-11-16T12:12:19.580Z,21.27
2022-11-16T12:15:01.645Z,30.65
2022-11-16T12:17:39.589Z,25.88
2022-11-16T12:20:19.156Z,22.60
2022-11-16T12:23:08.309Z,25.60
2022-11-16T12:25:46.432Z,24.30
2022-11-16T12:28:25.343Z,25.65
2022-11-16T12:31:18.999Z,22.92
2022-11-16T12:33:54.082Z,29.08
2022-11-16T12:36:31.771Z,21.42
2022-11-16T12:39:12.728Z,23.48
2022-11-16T12:41:58.553Z,23.27
2022-11-16T12:44:51.747Z,27.23
2022-11-16T12:47:31.544Z,27.08
2022-11-16T12:50:09.439Z,26.02
2022-11-16T12:53:07.508Z,24.77
2022-11-16T12:55:46.572Z,24.08
2022-11-16T12:58:21.350Z,26.60
2022-11-16T13:01:03.902Z,22.60
2022-11-16T13:03:39.573Z,21.80
2022-11-16T13:06:14.725Z,25.30
2022-11-16T13:08:50.296Z,26.73
2022-11-16T13:11:23.417Z,21.88
2022-11-16T13:13:54.239Z,24.05
2022-11-16T13:16:23.969Z,26.17
2022-11-16T13:18:53.268Z,23.27
2022-11-16T13:21:43.210Z,28.63
2022-11-16T13:24:26.034Z,23.10
2022-11-16T13:27:13.256Z,18.00
2022-11-16T13:29:47.163Z,19.15
2022-11-16T13:32:21.149Z,24.40
2022-11-16T13:34:50.673Z,20.67
2022-11-16T13:37:48.358Z,20.08
2022-11-16T13:40:30.815Z,25.65
2022-11-16T13:43:18.147Z,19.20
2022-11-16T13:45:55.462Z,23.05
2022-11-16T13:48:26.573Z,22.90
2022-11-16T13:50:57.036Z,23.02
2022-11-16T13:56:21.814Z,27.15
2022-11-16T13:58:55.633Z,29.55
2022-11-16T14:01:23.770Z,27.52
2022-11-16T14:03:53.514Z,26.42
2022-11-16T14:07:00.183Z,24.65
2022-11-16T14:09:49.354Z,27.70
2022-11-16T14:12:59.790Z,27.60
2022-11-16T14:15:33.050Z,22.92
2022-11-16T14:18:03.866Z,28.15
2022-11-16T14:20:46.887Z,40.00
2022-11-16T14:23:30.033Z,27.65
2022-11-16T14:26:12.004Z,21.58
2022-11-16T14:28:52.181Z,23.15
2022-11-16T14:31:25.233Z,25.05
2022-11-16T14:33:55.642Z,24.40
2022-11-16T14:36:39.803Z,20.75
2022-11-16T14:39:38.444Z,20.27
2022-11-16T14:42:16.801Z,23.42
2022-11-16T14:44:45.274Z,21.75
2022-11-16T14:47:24.075Z,23.45
2022-11-16T14:49:52.662Z,22.60
2022-11-16T14:52:28.193Z,24.17
2022-11-16T14:55:00.104Z,23.60
2022-11-16T14:57:29.633Z,21.77
2022-11-16T15:00:13.001Z,26.33
2022-11-16T15:02:41.737Z,24.23
2022-11-16T15:05:17.799Z,26.30
2022-11-16T15:07:47.587Z,35.45
2022-11-16T15:10:18.993Z,28.42
2022-11-16T15:12:52.296Z,31.08
2022-11-16T15:15:23.819Z,34.17
2022-11-16T15:18:07.083Z,27.55
2022-11-16T15:20:37.285Z,23.73
2022-11-16T15:23:13.272Z,25.85
2022-11-16T15:25:44.044Z,21.77
2022-11-16T15:28:18.759Z,25.42
2022-11-16T15:30:49.716Z,21.35
2022-11-16T15:33:21.485Z,23.20
2022-11-16T15:35:49.472Z,19.92
2022-11-16T15:38:20.952Z,23.27
2022-11-16T15:40:52.617Z,26.55
2022-11-16T15:43:24.455Z,21.13
2022-11-16T15:45:53.244Z,20.75
2022-11-16T15:48:23.297Z,22.08
2022-11-16T15:51:04.222Z,18.73
2022-11-16T15:53:38.236Z,22.15
2022-11-16T15:56:09.675Z,18.55
2022-11-16T15:58:40.770Z,22.63
2022-11-16T16:01:09.702Z,24.05
2022-11-16T16:03:39.503Z,26.60
2022-11-16T16:06:12.812Z,21.63
2022-11-16T16:08:41.771Z,22.25
2022-11-16T16:11:11.796Z,24.88
2022-11-16T16:13:44.160Z,24.58
2022-11-16T16:16:28.868Z,17.35
2022-11-16T16:19:03.687Z,20.48
2022-11-16T16:21:45.940Z,25.02
2022-11-16T16:24:36.653Z,22.27
2022-11-16T16:27:13.883Z,19.10
2022-11-16T16:29:43.452Z,19.73
2022-11-16T16:32:15.181Z,20.70
2022-11-16T16:34:43.156Z,23.00
2022-11-16T16:37:16.525Z,23.05
2022-11-16T16:39:44.436Z,29.33
2022-11-16T16:42:14.297Z,23.65
2022-11-16T16:44:44.626Z,29.25
2022-11-16T16:47:13.445Z,20.88
2022-11-16T16:49:41.894Z,23.20
2022-11-16T16:52:13.418Z,21.00
2022-11-16T16:54:42.807Z,28.35
2022-11-16T16:57:15.041Z,24.90
2022-11-16T16:59:45.208Z,32.65
2022-11-16T17:02:13.938Z,39.35
2022-11-16T17:04:43.897Z,28.17
2022-11-16T17:07:11.922Z,25.10
2022-11-16T17:09:39.909Z,24.55
2022-11-16T17:12:07.919Z,20.02
2022-11-16T17:14:35.874Z,22.83
2022-11-16T17:17:05.197Z,22.13
2022-11-16T17:19:33.211Z,28.75
2022-11-16T17:22:01.291Z,30.42
2022-11-16T17:24:29.340Z,43.92
2022-11-16T17:26:57.236Z,34.72
2022-11-16T17:29:25.227Z,26.55
2022-11-16T17:31:53.193Z,29.55
2022-11-16T17:34:22.657Z,30.25
2022-11-16T17:36:50.600Z,34.17
2022-11-16T17:39:19.206Z,30.70
2022-11-16T17:41:47.230Z,27.67
2022-11-16T17:44:21.276Z,33.67
2022-11-16T17:46:49.719Z,33.00
2022-11-16T17:49:17.771Z,39.10
2022-11-16T17:51:47.259Z,37.15
2022-11-16T17:54:15.205Z,38.28
2022-11-16T17:56:43.265Z,46.55
2022-11-16T17:59:11.263Z,32.78
2022-11-16T18:01:39.352Z,40.35
2022-11-16T18:04:07.449Z,33.33
2022-11-16T18:06:35.604Z,35.05
2022-11-16T18:09:05.051Z,36.47
2022-11-16T18:11:33.033Z,45.47
2022-11-16T18:14:02.094Z,36.08
2022-11-16T18:16:32.559Z,36.45
2022-11-16T18:19:02.316Z,40.25
2022-11-16T18:21:30.772Z,31.42
2022-11-16T18:24:00.610Z,36.42
2022-11-16T18:26:29.862Z,28.52
2022-11-16T18:28:57.812Z,33.58
2022-11-16T18:31:26.449Z,30.40
2022-11-16T18:33:54.514Z,32.78
2022-11-16T18:36:23.246Z,38.40
2022-11-16T18:38:51.562Z,35.20
2022-11-16T18:41:21.556Z,36.83
2022-11-16T18:43:52.548Z,35.58
2022-11-16T18:46:20.797Z,37.08
2022-11-16T18:48:48.845Z,35.05
2022-11-16T18:51:17.911Z,36.63
2022-11-16T18:53:46.554Z,33.17
2022-11-16T18:56:14.763Z,39.05
2022-11-16T18:58:50.439Z,33.33
2022-11-16T19:01:23.310Z,39.85
2022-11-16T19:03:52.054Z,39.45
2022-11-16T19:06:20.449Z,36.03
2022-11-16T19:08:55.241Z,36.30
2022-11-16T19:11:24.750Z,36.40
2022-11-16T19:13:54.634Z,93.95
2022-11-16T19:16:24.971Z,49.03
2022-11-16T19:18:53.178Z,43.28
2022-11-16T19:21:22.801Z,38.80
2022-11-16T19:23:52.555Z,40.40
2022-11-16T19:26:23.447Z,37.60
2022-11-16T19:28:52.449Z,41.15
2022-11-16T19:31:23.613Z,36.97
2022-11-16T19:33:55.425Z,40.22
2022-11-16T19:36:23.725Z,44.63
2022-11-16T19:38:51.888Z,42.20
2022-11-16T19:41:22.234Z,46.20
2022-11-16T19:43:52.352Z,86.57
2022-11-16T19:46:21.309Z,62.22
2022-11-16T19:48:50.902Z,63.58
2022-11-16T19:51:20.461Z,38.92
2022-11-16T19:53:48.980Z,35.30
2022-11-16T19:56:19.448Z,30.92
2022-11-16T19:58:49.837Z,30.55
2022-11-16T20:01:19.578Z,26.70
2022-11-16T20:03:48.864Z,30.50
2022-11-16T20:06:19.789Z,29.15
2022-11-16T20:08:49.612Z,25.75
2022-11-16T20:11:20.372Z,28.55
2022-11-16T20:13:48.744Z,28.73
2022-11-16T20:16:18.048Z,34.20
2022-11-16T20:18:46.726Z,23.80
2022-11-16T20:21:20.281Z,26.55
2022-11-16T20:23:48.248Z,27.20
2022-11-16T20:26:16.385Z,28.50
2022-11-16T20:28:44.828Z,30.23
2022-11-16T20:31:14.653Z,28.02
2022-11-16T20:33:43.204Z,25.67
2022-11-16T20:36:12.636Z,25.67
2022-11-16T20:38:41.880Z,32.33
2022-11-16T20:41:11.769Z,33.83
2022-11-16T20:43:40.329Z,27.77
2022-11-16T20:46:08.952Z,32.80
2022-11-16T20:48:37.319Z,32.65
2022-11-16T20:51:05.834Z,35.00
2022-11-16T20:53:34.182Z,27.77
2022-11-16T20:56:04.173Z,31.90
2022-11-16T20:58:33.320Z,32.72
2022-11-16T21:01:01.899Z,31.50
2022-11-16T21:03:29.938Z,31.88
2022-11-16T21:05:57.897Z,29.85
2022-11-16T21:08:26.886Z,34.00
2022-11-16T21:10:55.054Z,30.13
2022-11-16T21:13:42.507Z,26.35
2022-11-16T21:16:12.131Z,29.10
2022-11-16T21:18:40.708Z,25.48
2022-11-16T21:21:11.303Z,24.33
2022-11-16T21:23:41.086Z,29.05
2022-11-16T21:26:12.247Z,26.63
2022-11-16T21:31:30.799Z,29.00
2022-11-16T21:34:00.497Z,26.98
2022-11-16T21:36:30.250Z,23.63
2022-11-16T21:38:59.061Z,28.42
2022-11-16T21:41:27.966Z,30.95
2022-11-16T21:43:57.353Z,26.90
2022-11-16T21:46:27.045Z,26.90
2022-11-16T21:48:56.598Z,22.73
2022-11-16T21:51:26.729Z,25.08
2022-11-16T21:53:54.926Z,24.80
2022-11-16T21:56:24.584Z,29.15
2022-11-16T21:58:53.686Z,28.08
2022-11-16T22:01:23.911Z,31.98
2022-11-16T22:04:06.142Z,29.73
2022-11-16T22:06:51.589Z,29.13
2022-11-16T22:09:19.557Z,25.42
2022-11-16T22:11:47.488Z,28.23
2022-11-16T22:14:15.500Z,26.77
2022-11-16T22:16:45.118Z,23.92
2022-11-16T22:19:13.130Z,27.55
2022-11-16T22:21:41.060Z,21.85
2022-11-16T22:24:09.541Z,27.45
2022-11-16T22:26:38.133Z,28.30
2022-11-16T22:29:06.156Z,24.17
2022-11-16T22:31:36.049Z,24.70
2022-11-16T22:34:05.531Z,27.33
2022-11-16T22:36:33.446Z,21.65
2022-11-16T22:39:01.988Z,26.65
2022-11-16T22:41:29.959Z,20.35
2022-11-16T22:43:57.984Z,24.20
2022-11-16T22:46:25.893Z,25.77
2022-11-16T22:48:53.873Z,23.58
2022-11-16T22:51:25.096Z,24.88
2022-11-16T22:53:54.281Z,27.10
2022-11-16T22:56:22.619Z,29.88
2022-11-16T22:58:50.793Z,27.27
2022-11-16T23:01:19.351Z,21.67
2022-11-16T23:03:47.820Z,23.40
2022-11-16T23:06:16.384Z,23.65
2022-11-16T23:08:45.888Z,19.58
2022-11-16T23:11:32.858Z,20.67
2022-11-16T23:14:19.289Z,22.88
2022-11-16T23:16:47.427Z,24.45
2022-11-16T23:19:34.739Z,19.75
2022-11-16T23:22:16.927Z,25.60
2022-11-16T23:25:04.303Z,29.58
2022-11-16T23:27:40.469Z,17.80
2022-11-16T23:30:13.590Z,21.33
2022-11-16T23:32:42.442Z,22.27
2022-11-16T23:35:11.359Z,21.20
2022-11-16T23:37:51.601Z,20.65
2022-11-16T23:40:21.544Z,19.52
2022-11-16T23:43:07.916Z,22.73
2022-11-16T23:45:36.173Z,21.15
2022-11-16T23:48:04.904Z,22.95
2022-11-16T23:50:32.896Z,23.13
2022-11-16T23:53:00.853Z,20.73
2022-11-16T23:55:30.248Z,23.80
2022-11-16T23:57:58.290Z,24.75
